createdAt,value
2018-12-05T00:01:07.638Z,11.57
2018-12-05T00:03:36.106Z,11.60
2018-12-05T00:06:04.607Z,11.90
2018-12-05T00:08:33.068Z,11.43
2018-12-05T00:11:01.545Z,12.07
2018-12-05T00:13:30.027Z,11.13
2018-12-05T00:15:58.579Z,13.23
2018-12-05T00:18:27.076Z,11.40
2018-12-05T00:20:55.558Z,16.13
2018-12-05T00:23:24.010Z,9.83
2018-12-05T00:25:52.510Z,10.83
2018-12-05T00:28:20.978Z,10.40
2018-12-05T00:30:49.528Z,13.27
2018-12-05T00:33:18.130Z,9.67
2018-12-05T00:35:46.615Z,12.47
2018-12-05T00:38:15.075Z,7.10
2018-12-05T00:40:43.579Z,11.13
2018-12-05T00:43:12.086Z,10.30
2018-12-05T00:45:40.584Z,15.37
2018-12-05T00:48:09.042Z,9.03
2018-12-05T00:50:37.499Z,10.77
2018-12-05T00:53:05.959Z,11.40
2018-12-05T00:55:34.393Z,12.10
2018-12-05T00:58:03.114Z,12.07
2018-12-05T01:00:31.550Z,14.30
2018-12-05T01:03:00.051Z,16.07
2018-12-05T01:05:28.534Z,12.53
2018-12-05T01:07:56.995Z,14.50
2018-12-05T01:10:25.458Z,14.30
2018-12-05T01:12:53.917Z,15.97
2018-12-05T01:15:22.394Z,13.43
2018-12-05T01:17:50.887Z,14.33
2018-12-05T01:20:19.457Z,14.30
2018-12-05T01:22:47.915Z,13.13
2018-12-05T01:25:16.388Z,11.83
2018-12-05T01:27:44.845Z,13.10
2018-12-05T01:30:13.347Z,12.27
2018-12-05T01:32:41.833Z,14.43
2018-12-05T01:35:10.351Z,11.67
2018-12-05T01:37:38.819Z,10.40
2018-12-05T01:40:07.287Z,15.60
2018-12-05T01:42:35.739Z,13.53
2018-12-05T01:45:04.203Z,10.90
2018-12-05T01:47:33.127Z,13.77
2018-12-05T01:50:01.586Z,15.50
2018-12-05T01:52:30.053Z,13.77
2018-12-05T01:54:58.519Z,11.90
2018-12-05T01:57:26.985Z,11.40
2018-12-05T01:59:55.469Z,19.60
2018-12-05T02:02:23.950Z,17.60
2018-12-05T02:04:52.435Z,18.47
2018-12-05T02:07:20.887Z,18.43
2018-12-05T02:09:49.350Z,9.93
2018-12-05T02:12:17.804Z,16.23
2018-12-05T02:14:46.262Z,13.90
2018-12-05T02:17:14.737Z,12.23
2018-12-05T02:19:43.211Z,14.97
2018-12-05T02:22:11.714Z,14.63
2018-12-05T02:24:40.246Z,15.83
2018-12-05T02:27:08.732Z,16.87
2018-12-05T02:32:23.879Z,19.93
2018-12-05T02:34:52.351Z,19.13
2018-12-05T02:37:20.808Z,17.03
2018-12-05T02:39:49.282Z,19.07
2018-12-05T02:42:17.764Z,18.73
2018-12-05T02:44:46.259Z,16.60
2018-12-05T02:47:14.747Z,15.83
2018-12-05T02:49:43.200Z,19.53
2018-12-05T02:52:11.682Z,15.53
2018-12-05T02:54:40.144Z,18.90
2018-12-05T02:57:08.577Z,17.47
2018-12-05T02:59:37.069Z,17.27
2018-12-05T03:02:05.600Z,18.97
2018-12-05T03:04:34.058Z,22.17
2018-12-05T03:07:02.545Z,16.90
2018-12-05T03:09:31.015Z,19.77
2018-12-05T03:11:59.562Z,20.57
2018-12-05T03:14:28.021Z,19.57
2018-12-05T03:16:56.474Z,18.10
2018-12-05T03:19:25.013Z,19.83
2018-12-05T03:21:53.483Z,21.53
2018-12-05T03:24:21.945Z,17.87
2018-12-05T03:26:50.456Z,17.50
2018-12-05T03:29:18.902Z,19.67
2018-12-05T03:31:47.393Z,17.90
2018-12-05T03:34:15.839Z,16.03
2018-12-05T03:36:44.314Z,21.50
2018-12-05T03:39:12.784Z,21.80
2018-12-05T03:41:41.430Z,17.13
2018-12-05T03:44:09.924Z,21.87
2018-12-05T03:46:38.485Z,16.90
2018-12-05T03:49:07.133Z,20.00
2018-12-05T03:51:35.585Z,17.53
2018-12-05T03:54:04.087Z,17.47
2018-12-05T03:56:32.536Z,17.37
2018-12-05T03:59:01.006Z,18.30
2018-12-05T04:01:29.642Z,16.10
2018-12-05T04:03:58.361Z,20.87
2018-12-05T04:06:26.842Z,17.70
2018-12-05T04:08:55.346Z,20.07
2018-12-05T04:11:23.985Z,17.37
2018-12-05T04:13:52.472Z,22.33
2018-12-05T04:16:20.965Z,20.17
2018-12-05T04:18:49.427Z,15.63
2018-12-05T04:21:17.883Z,18.50
2018-12-05T04:23:46.368Z,19.07
2018-12-05T04:26:14.837Z,17.13
2018-12-05T04:28:43.346Z,17.00
2018-12-05T04:31:11.902Z,17.33
2018-12-05T04:33:40.368Z,20.97
2018-12-05T04:36:08.935Z,17.87
2018-12-05T04:38:37.414Z,23.80
2018-12-05T04:41:05.882Z,19.27
2018-12-05T04:43:34.322Z,18.03
2018-12-05T04:46:02.806Z,17.80
2018-12-05T04:48:31.255Z,22.23
2018-12-05T04:50:59.722Z,18.23
2018-12-05T04:53:28.204Z,20.67
2018-12-05T04:55:56.666Z,23.33
2018-12-05T04:58:25.113Z,18.70
2018-12-05T05:00:53.596Z,22.27
2018-12-05T05:03:22.068Z,17.63
2018-12-05T05:05:50.579Z,24.90
2018-12-05T05:08:19.055Z,20.67
2018-12-05T05:10:47.598Z,22.70
2018-12-05T05:13:16.067Z,19.77
2018-12-05T05:15:44.523Z,21.00
2018-12-05T05:18:12.999Z,22.07
2018-12-05T05:20:41.452Z,24.50
2018-12-05T05:23:09.924Z,24.40
2018-12-05T05:25:38.417Z,22.53
2018-12-05T05:28:06.903Z,28.47
2018-12-05T05:30:35.391Z,22.23
2018-12-05T05:33:03.863Z,21.07
2018-12-05T05:35:32.405Z,27.53
2018-12-05T05:38:00.895Z,23.50
2018-12-05T05:40:29.343Z,24.23
2018-12-05T05:42:57.854Z,20.73
2018-12-05T05:45:26.337Z,20.27
2018-12-05T05:47:54.794Z,26.63
2018-12-05T05:50:23.401Z,26.90
2018-12-05T05:52:51.876Z,22.00
2018-12-05T05:55:20.319Z,21.70
2018-12-05T05:57:48.800Z,22.60
2018-12-05T06:00:17.267Z,24.30
2018-12-05T06:02:45.758Z,27.90
2018-12-05T06:05:14.226Z,27.00
2018-12-05T06:07:42.827Z,26.20
2018-12-05T06:10:11.293Z,21.30
2018-12-05T06:12:39.803Z,19.70
2018-12-05T06:15:09.165Z,23.20
2018-12-05T06:17:37.615Z,23.63
2018-12-05T06:20:06.111Z,18.87
2018-12-05T06:22:34.596Z,17.43
2018-12-05T06:25:03.048Z,21.33
2018-12-05T06:27:31.516Z,19.77
2018-12-05T06:29:59.976Z,23.40
2018-12-05T06:32:28.437Z,16.13
2018-12-05T06:34:56.919Z,17.60
2018-12-05T06:37:25.383Z,15.97
2018-12-05T06:39:54.103Z,18.97
2018-12-05T06:42:22.563Z,16.37
2018-12-05T06:44:51.014Z,18.23
2018-12-05T06:47:19.487Z,19.33
2018-12-05T06:49:47.914Z,19.67
2018-12-05T06:52:16.395Z,16.80
2018-12-05T06:54:44.887Z,15.97
2018-12-05T06:57:13.353Z,18.23
2018-12-05T06:59:41.846Z,14.40
2018-12-05T07:02:10.299Z,18.07
2018-12-05T07:04:38.842Z,22.17
2018-12-05T07:07:07.314Z,20.13
2018-12-05T07:09:35.851Z,18.07
2018-12-05T07:12:04.319Z,20.50
2018-12-05T07:14:32.782Z,18.93
2018-12-05T07:17:01.264Z,18.10
2018-12-05T07:19:29.800Z,18.37
2018-12-05T07:21:58.251Z,20.87
2018-12-05T07:24:26.695Z,18.27
2018-12-05T07:26:55.145Z,21.13
2018-12-05T07:29:23.643Z,18.43
2018-12-05T07:31:52.125Z,21.00
2018-12-05T07:34:20.584Z,20.13
2018-12-05T07:36:49.059Z,16.40
2018-12-05T07:39:17.544Z,18.67
2018-12-05T07:41:46.016Z,16.73
2018-12-05T07:44:14.481Z,19.27
2018-12-05T07:46:42.942Z,20.23
2018-12-05T07:49:11.421Z,17.13
2018-12-05T07:51:39.892Z,18.43
2018-12-05T07:54:08.519Z,21.90
2018-12-05T07:56:37.063Z,16.90
2018-12-05T07:59:05.568Z,15.47
2018-12-05T08:01:34.090Z,22.60
2018-12-05T08:04:02.611Z,17.47
2018-12-05T08:06:31.083Z,20.13
2018-12-05T08:08:59.573Z,17.40
2018-12-05T08:11:28.102Z,20.33
2018-12-05T08:13:56.574Z,15.37
2018-12-05T08:16:25.072Z,16.87
2018-12-05T08:18:53.547Z,19.70
2018-12-05T08:21:21.978Z,19.43
2018-12-05T08:23:50.426Z,17.37
2018-12-05T08:26:18.950Z,20.87
2018-12-05T08:28:47.409Z,17.57
2018-12-05T08:31:15.917Z,21.30
2018-12-05T08:33:44.460Z,17.60
2018-12-05T08:36:12.908Z,21.30
2018-12-05T08:38:41.368Z,20.10
2018-12-05T08:41:09.855Z,21.67
2018-12-05T08:43:38.347Z,18.67
2018-12-05T08:46:06.809Z,23.57
2018-12-05T08:48:35.291Z,16.67
2018-12-05T08:51:03.768Z,16.90
2018-12-05T08:53:32.234Z,16.90
2018-12-05T08:56:00.704Z,17.27
2018-12-05T08:58:29.167Z,19.17
2018-12-05T09:00:57.643Z,15.97
2018-12-05T09:03:26.116Z,18.77
2018-12-05T09:05:54.600Z,16.07
2018-12-05T09:08:23.184Z,15.50
2018-12-05T09:10:51.639Z,17.70
2018-12-05T09:13:20.167Z,19.17
2018-12-05T09:15:48.615Z,16.33
2018-12-05T09:18:17.066Z,17.90
2018-12-05T09:20:45.543Z,21.50
2018-12-05T09:23:14.118Z,19.20
2018-12-05T09:25:42.581Z,15.83
2018-12-05T09:28:11.151Z,16.97
2018-12-05T09:30:39.630Z,20.23
2018-12-05T09:33:08.078Z,15.77
2018-12-05T09:35:36.555Z,18.03
2018-12-05T09:55:02.752Z,21.80
2018-12-05T09:57:31.218Z,20.07
2018-12-05T09:59:59.848Z,18.33
2018-12-05T10:02:28.493Z,19.13
2018-12-05T10:04:56.940Z,17.43
2018-12-05T10:07:25.417Z,18.30
2018-12-05T10:09:55.722Z,17.23
2018-12-05T10:12:24.190Z,19.57
2018-12-05T10:14:52.651Z,17.80
2018-12-05T10:17:21.136Z,14.27
2018-12-05T10:19:49.577Z,19.33
2018-12-05T10:22:18.042Z,20.00
2018-12-05T10:24:46.553Z,17.13
2018-12-05T10:27:15.134Z,14.00
2018-12-05T10:29:43.624Z,15.90
2018-12-05T10:32:12.186Z,15.77
2018-12-05T10:34:40.662Z,18.97
2018-12-05T10:37:09.142Z,17.00
2018-12-05T10:39:37.588Z,14.00
2018-12-05T10:42:06.039Z,15.23
2018-12-05T10:44:34.519Z,15.80
2018-12-05T10:47:10.402Z,14.63
2018-12-05T10:49:38.847Z,15.07
2018-12-05T10:52:07.329Z,18.77
2018-12-05T10:54:35.781Z,16.57
2018-12-05T10:57:04.226Z,13.77
2018-12-05T10:59:32.680Z,14.17
2018-12-05T11:02:06.730Z,12.93
2018-12-05T11:08:29.647Z,15.33
2018-12-05T11:11:03.437Z,15.60
2018-12-05T11:13:37.389Z,11.97
2018-12-05T11:16:12.704Z,13.67
2018-12-05T11:18:46.915Z,13.73
2018-12-05T11:22:25.086Z,11.37
2018-12-05T11:25:17.442Z,12.37
2018-12-05T11:27:46.067Z,12.47
2018-12-05T11:30:14.531Z,14.90
2018-12-05T11:32:43.087Z,14.20
2018-12-05T11:35:11.563Z,12.50
2018-12-05T11:37:40.038Z,20.47
2018-12-05T11:40:08.527Z,14.57
2018-12-05T11:42:37.008Z,18.60
2018-12-05T11:45:05.962Z,17.37
2018-12-05T11:47:34.554Z,18.67
2018-12-05T11:50:03.033Z,18.23
2018-12-05T11:52:31.506Z,17.93
2018-12-05T11:54:59.988Z,15.13
2018-12-05T11:57:28.450Z,18.60
2018-12-05T11:59:56.910Z,16.27
2018-12-05T12:02:25.375Z,19.97
2018-12-05T12:04:53.991Z,15.17
2018-12-05T12:07:22.482Z,15.30
2018-12-05T12:09:51.020Z,17.40
2018-12-05T12:12:24.705Z,14.90
2018-12-05T12:14:53.229Z,14.03
2018-12-05T12:17:21.769Z,14.10
2018-12-05T12:19:50.335Z,17.43
2018-12-05T12:22:18.869Z,16.83
2018-12-05T12:24:47.449Z,19.23
2018-12-05T12:27:15.908Z,15.27
2018-12-05T12:29:44.406Z,19.07
2018-12-05T12:32:12.879Z,20.47
2018-12-05T12:34:41.479Z,18.83
2018-12-05T12:37:09.964Z,19.57
2018-12-05T12:39:38.470Z,20.43
2018-12-05T12:42:06.957Z,24.50
2018-12-05T12:44:35.476Z,22.33
2018-12-05T12:47:03.934Z,21.10
2018-12-05T12:49:32.503Z,23.23
2018-12-05T12:52:01.020Z,23.77
2018-12-05T12:54:29.525Z,20.63
2018-12-05T12:56:58.008Z,26.60
2018-12-05T12:59:26.528Z,24.90
2018-12-05T13:01:55.167Z,29.77
2018-12-05T13:04:23.669Z,30.40
2018-12-05T13:06:52.135Z,27.60
2018-12-05T13:09:20.596Z,28.57
2018-12-05T13:11:49.196Z,34.00
2018-12-05T13:14:17.718Z,31.30
2018-12-05T13:16:46.284Z,35.27
2018-12-05T13:19:14.796Z,33.30
2018-12-05T13:21:43.277Z,32.97
2018-12-05T13:24:11.740Z,35.23
2018-12-05T13:26:40.201Z,42.10
2018-12-05T13:29:08.667Z,39.53
2018-12-05T13:31:37.186Z,44.00
2018-12-05T13:34:05.752Z,32.57
2018-12-05T13:36:34.214Z,32.93
2018-12-05T13:39:02.763Z,32.80
2018-12-05T13:41:31.296Z,38.80
2018-12-05T13:43:59.777Z,32.97
2018-12-05T13:46:30.137Z,37.53
2018-12-05T13:48:58.682Z,40.30
2018-12-05T13:51:27.316Z,37.90
2018-12-05T13:53:55.770Z,38.57
2018-12-05T13:56:24.210Z,44.43
2018-12-05T13:58:52.727Z,47.13
2018-12-05T14:01:22.319Z,38.17
2018-12-05T14:03:50.788Z,44.80
2018-12-05T14:06:19.246Z,47.63
2018-12-05T14:08:47.706Z,43.13
2018-12-05T14:11:16.266Z,47.13
2018-12-05T14:13:44.732Z,49.37
2018-12-05T14:16:13.203Z,45.33
2018-12-05T14:18:41.754Z,44.13
2018-12-05T14:21:10.208Z,46.57
2018-12-05T14:23:38.647Z,44.33
2018-12-05T14:26:07.159Z,43.53
2018-12-05T14:28:35.622Z,41.73
2018-12-05T14:31:04.116Z,39.47
2018-12-05T14:33:32.583Z,40.77
2018-12-05T14:36:01.067Z,42.13
2018-12-05T14:38:29.606Z,39.40
2018-12-05T14:40:58.100Z,47.50
2018-12-05T14:43:26.576Z,44.50
2018-12-05T14:45:55.160Z,39.13
2018-12-05T14:48:23.622Z,39.20
2018-12-05T14:50:52.114Z,39.27
2018-12-05T14:53:20.592Z,38.03
2018-12-05T14:55:49.123Z,38.40
2018-12-05T14:58:17.606Z,35.93
2018-12-05T15:00:46.056Z,37.13
2018-12-05T15:03:14.696Z,43.37
2018-12-05T15:05:43.252Z,32.13
2018-12-05T15:08:11.689Z,36.80
2018-12-05T15:10:40.138Z,33.03
2018-12-05T15:13:08.608Z,30.90
2018-12-05T15:15:37.129Z,29.83
2018-12-05T15:18:05.652Z,35.80
2018-12-05T15:20:34.157Z,34.00
2018-12-05T15:23:02.639Z,37.67
2018-12-05T15:25:31.091Z,34.40
2018-12-05T15:27:59.574Z,32.90
2018-12-05T15:30:28.023Z,34.50
2018-12-05T15:32:56.503Z,33.13
2018-12-05T15:35:24.983Z,39.30
2018-12-05T15:37:53.427Z,36.33
2018-12-05T15:40:21.891Z,33.97
2018-12-05T15:42:50.361Z,32.93
2018-12-05T15:45:21.618Z,36.23
2018-12-05T15:47:49.302Z,31.20
2018-12-05T15:50:18.130Z,34.10
2018-12-05T15:52:46.735Z,36.43
2018-12-05T15:55:15.210Z,33.07
2018-12-05T15:57:43.691Z,33.17
2018-12-05T16:00:12.413Z,34.00
2018-12-05T16:02:40.867Z,35.80
2018-12-05T16:05:09.335Z,35.87
2018-12-05T16:07:37.909Z,37.90
2018-12-05T16:10:06.884Z,34.20
2018-12-05T16:12:35.355Z,33.67
2018-12-05T16:15:04.983Z,28.23
2018-12-05T16:17:43.829Z,29.70
2018-12-05T16:20:19.624Z,30.30
2018-12-05T16:22:48.108Z,28.97
2018-12-05T16:25:16.565Z,26.03
2018-12-05T16:30:21.399Z,28.03
2018-12-05T16:32:49.967Z,33.67
2018-12-05T16:35:18.441Z,29.13
2018-12-05T16:37:46.942Z,30.70
2018-12-05T16:40:15.490Z,30.17
2018-12-05T16:42:45.375Z,24.20
2018-12-05T16:45:13.844Z,29.03
2018-12-05T16:47:42.323Z,27.27
2018-12-05T16:50:10.789Z,26.10
2018-12-05T16:52:39.246Z,26.93
2018-12-05T16:55:07.703Z,23.80
2018-12-05T16:57:36.171Z,24.03
2018-12-05T17:00:07.247Z,25.30
2018-12-05T17:02:35.692Z,22.77
2018-12-05T17:05:04.492Z,27.63
2018-12-05T17:07:32.967Z,25.73
2018-12-05T17:10:01.534Z,24.70
2018-12-05T17:12:30.115Z,25.83
2018-12-05T17:15:02.078Z,23.63
2018-12-05T17:17:32.506Z,22.70
2018-12-05T17:20:00.968Z,24.73
2018-12-05T17:22:29.462Z,23.77
2018-12-05T17:28:19.926Z,22.80
2018-12-05T17:34:10.654Z,24.60
2018-12-05T17:36:39.123Z,24.30
2018-12-05T17:39:08.815Z,24.03
2018-12-05T17:41:37.492Z,23.10
2018-12-05T17:44:06.047Z,23.23
2018-12-05T17:46:34.512Z,23.07
2018-12-05T17:52:24.685Z,22.60
2018-12-05T17:54:53.270Z,22.50
2018-12-05T17:57:21.761Z,27.27
2018-12-05T17:59:50.227Z,22.47
2018-12-05T18:02:19.611Z,24.10
2018-12-05T18:04:48.072Z,24.07
2018-12-05T18:07:16.610Z,24.43
2018-12-05T18:09:45.787Z,21.93
2018-12-05T18:12:14.237Z,24.00
2018-12-05T18:14:46.147Z,25.30
2018-12-05T18:17:14.605Z,23.33
2018-12-05T18:19:43.107Z,25.77
2018-12-05T18:22:11.597Z,27.23
2018-12-05T18:24:40.053Z,21.83
2018-12-05T18:27:12.004Z,26.00
2018-12-05T18:29:40.497Z,27.37
2018-12-05T18:32:08.965Z,24.80
2018-12-05T18:34:37.450Z,29.53
2018-12-05T18:37:05.956Z,31.10
2018-12-05T18:39:34.410Z,27.63
2018-12-05T18:42:03.040Z,28.63
2018-12-05T18:44:35.561Z,30.67
2018-12-05T18:47:04.049Z,29.17
2018-12-05T18:52:54.324Z,26.47
2018-12-05T18:55:22.768Z,25.60
2018-12-05T18:57:51.230Z,23.93
2018-12-05T19:00:20.718Z,25.67
2018-12-05T19:02:49.207Z,32.17
2018-12-05T19:05:17.682Z,24.73
2018-12-05T19:07:49.848Z,22.37
2018-12-05T19:10:26.672Z,23.17
2018-12-05T19:12:55.141Z,24.87
2018-12-05T19:15:23.648Z,23.50
2018-12-05T19:17:53.623Z,27.17
2018-12-05T19:20:22.101Z,20.23
2018-12-05T19:22:50.584Z,23.27
2018-12-05T19:25:19.063Z,26.33
2018-12-05T19:27:47.920Z,21.13
2018-12-05T19:30:16.401Z,21.23
2018-12-05T19:32:44.895Z,24.90
2018-12-05T19:35:13.391Z,24.50
2018-12-05T19:37:43.000Z,24.60
2018-12-05T19:40:11.515Z,23.00
2018-12-05T19:42:40.095Z,20.73
2018-12-05T19:45:09.132Z,21.83
2018-12-05T19:47:44.985Z,23.13
2018-12-05T19:50:13.436Z,19.33
2018-12-05T19:52:43.429Z,22.83
2018-12-05T19:55:19.417Z,19.07
2018-12-05T19:57:47.915Z,25.73
2018-12-05T20:00:16.392Z,20.10
2018-12-05T20:02:46.590Z,23.10
2018-12-05T20:08:37.634Z,19.90
2018-12-05T20:11:06.139Z,23.73
2018-12-05T20:13:36.588Z,18.83
2018-12-05T20:16:05.062Z,21.97
2018-12-05T20:18:33.606Z,24.00
2018-12-05T20:21:02.110Z,26.30
2018-12-05T20:23:30.591Z,18.07
2018-12-05T20:29:24.641Z,16.47
2018-12-05T20:35:14.318Z,25.27
2018-12-05T20:37:42.808Z,20.10
2018-12-05T20:40:11.334Z,18.97
2018-12-05T20:42:39.825Z,18.50
2018-12-05T20:45:08.314Z,25.10
2018-12-05T20:47:36.806Z,21.20
2018-12-05T20:50:05.563Z,16.60
2018-12-05T20:52:34.064Z,30.17
2018-12-05T20:55:02.641Z,18.17
2018-12-05T21:14:18.673Z,16.77
2018-12-05T21:16:47.152Z,19.97
2018-12-05T21:19:17.369Z,18.80
2018-12-05T21:21:45.897Z,19.53
2018-12-05T21:24:14.427Z,20.67
2018-12-05T21:26:42.955Z,20.73
2018-12-05T21:29:11.465Z,15.97
2018-12-05T21:32:07.014Z,17.63
2018-12-05T21:34:48.755Z,18.00
2018-12-05T21:37:17.407Z,16.93
2018-12-05T21:39:45.924Z,15.23
2018-12-05T21:42:25.199Z,16.73
2018-12-05T21:44:53.796Z,13.93
2018-12-05T21:47:22.285Z,16.83
2018-12-05T21:49:50.849Z,17.37
2018-12-05T21:52:31.880Z,17.90
2018-12-05T21:55:00.436Z,17.43
2018-12-05T21:57:28.916Z,17.90
2018-12-05T21:59:59.060Z,25.07
2018-12-05T22:02:27.532Z,18.23
2018-12-05T22:05:07.986Z,19.97
2018-12-05T22:07:42.192Z,17.00
2018-12-05T22:10:17.121Z,18.87
2018-12-05T22:12:52.067Z,19.63
2018-12-05T22:15:22.791Z,18.37
2018-12-05T22:17:57.485Z,17.70
2018-12-05T22:20:32.414Z,14.00
2018-12-05T22:23:01.093Z,19.07
2018-12-05T22:25:29.584Z,14.47
2018-12-05T22:27:58.205Z,17.47
2018-12-05T22:30:26.724Z,16.30
2018-12-05T22:32:55.344Z,21.03
2018-12-05T22:35:23.988Z,14.87
2018-12-05T22:37:52.619Z,24.67
2018-12-05T22:40:21.098Z,19.97
2018-12-05T22:42:49.559Z,20.63
2018-12-05T22:45:18.046Z,22.47
2018-12-05T22:47:46.556Z,21.47
2018-12-05T22:50:15.182Z,18.90
2018-12-05T22:52:43.703Z,20.77
2018-12-05T22:55:12.216Z,20.50
2018-12-05T22:57:40.888Z,21.80
2018-12-05T23:00:13.838Z,23.37
2018-12-05T23:02:42.422Z,22.60
2018-12-05T23:05:10.936Z,23.57
2018-12-05T23:07:39.404Z,21.80
2018-12-05T23:10:08.073Z,24.33
2018-12-05T23:12:36.563Z,23.90
2018-12-05T23:15:05.378Z,26.90
2018-12-05T23:17:33.854Z,23.67
2018-12-05T23:20:02.331Z,26.57
2018-12-05T23:22:30.895Z,25.37
2018-12-05T23:24:59.396Z,30.77
2018-12-05T23:27:28.049Z,29.47
2018-12-05T23:29:56.536Z,33.57
2018-12-05T23:32:24.970Z,28.37
2018-12-05T23:34:53.506Z,32.47
2018-12-05T23:37:21.988Z,33.13
2018-12-05T23:39:50.453Z,25.00
2018-12-05T23:42:18.930Z,29.40
2018-12-05T23:44:47.399Z,31.40
2018-12-05T23:47:15.905Z,29.73
2018-12-05T23:49:44.370Z,23.33
2018-12-05T23:52:12.870Z,27.00
2018-12-05T23:54:41.320Z,30.73
2018-12-05T23:57:09.779Z,30.77
2018-12-05T23:59:38.242Z,28.73
